FDX211 EGCC-KJFK
Flight info
| Callsign | FDX211 |
|---|---|
| Flight time | N/A |
| Altitude | 34000 |
| Route | EKLAD UY53 WAL L10 PENIL M144 BAGSO DCT DOGAL/M082F340 DCT 55N020W 55N030W 55N040W 54N050W DCT NEEKO/N0477F340 N622E TAFFY/N0471F360 DCT ENE PARCH3 |
| Aircraft | B77L/H-SDE1E2E3FGHIJ2J3J4J5M1RWXY/LB1D1 |
Departure
| Time | 2026-05-04 17:59 |
|---|---|
| Airport | Manchester Airport (EGCC) |
Arrival
| Time | N/A |
|---|---|
| Airport | John F. Kennedy International Airport (KJFK) |
| Time | Latitude | Longitude | Altitude | Speed | Heading |
|---|---|---|---|---|---|
| 2026-05-04 17:13 | 53.35897 | -2.27958 | 255 ft | 0 kts | 276° |
| 2026-05-04 17:48 | 53.35896 | -2.27945 | 255 ft | 3 kts | 276° |
| 2026-05-04 17:48 | 53.35894 | -2.27916 | 255 ft | 3 kts | 276° |
| 2026-05-04 17:48 | 53.35893 | -2.27885 | 254 ft | 3 kts | 252° |
| 2026-05-04 17:48 | 53.35902 | -2.27858 | 254 ft | 3 kts | 210° |
| 2026-05-04 17:49 | 53.35915 | -2.27849 | 254 ft | 0 kts | 185° |
| 2026-05-04 17:49 | 53.35916 | -2.27849 | 254 ft | 0 kts | 185° |
| 2026-05-04 17:52 | 53.35921 | -2.27848 | 254 ft | 0 kts | 185° |
| 2026-05-04 17:52 | 53.35927 | -2.27847 | 254 ft | 1 kts | 185° |
| 2026-05-04 17:53 | 53.35929 | -2.27847 | 254 ft | 1 kts | 185° |
| 2026-05-04 17:53 | 53.35926 | -2.27847 | 254 ft | 1 kts | 185° |
| 2026-05-04 17:53 | 53.35918 | -2.27849 | 254 ft | 0 kts | 185° |
| 2026-05-04 17:53 | 53.35899 | -2.27851 | 254 ft | 0 kts | 184° |
| 2026-05-04 17:54 | 53.35869 | -2.27834 | 254 ft | 3 kts | 148° |
| 2026-05-04 17:54 | 53.35839 | -2.27779 | 253 ft | 9 kts | 130° |
| 2026-05-04 17:54 | 53.35794 | -2.27701 | 252 ft | 9 kts | 141° |
| 2026-05-04 17:54 | 53.35740 | -2.27646 | 252 ft | 9 kts | 155° |
| 2026-05-04 17:55 | 53.35682 | -2.27596 | 251 ft | 9 kts | 149° |
| 2026-05-04 17:55 | 53.35630 | -2.27532 | 250 ft | 9 kts | 142° |
| 2026-05-04 17:55 | 53.35600 | -2.27491 | 249 ft | 0 kts | 141° |
| 2026-05-04 17:56 | 53.35598 | -2.27489 | 249 ft | 3 kts | 142° |
| 2026-05-04 17:56 | 53.35518 | -2.27384 | 249 ft | 25 kts | 140° |
| 2026-05-04 17:56 | 53.35358 | -2.27198 | 251 ft | 29 kts | 169° |
| 2026-05-04 17:56 | 53.35183 | -2.27235 | 269 ft | 6 kts | 192° |
| 2026-05-04 17:57 | 53.35182 | -2.27236 | 269 ft | 0 kts | 192° |
| 2026-05-04 17:58 | 53.35135 | -2.27252 | 273 ft | 17 kts | 191° |
| 2026-05-04 17:58 | 53.34982 | -2.27375 | 274 ft | 33 kts | 228° |
| 2026-05-04 17:58 | 53.34689 | -2.27981 | 266 ft | 108 kts | 231° |
| 2026-05-04 17:58 | 53.34056 | -2.29285 | 352 ft | 170 kts | 231° |
| 2026-05-04 17:59 | 53.33266 | -2.30934 | 1016 ft | 188 kts | 237° |
| 2026-05-04 17:59 | 53.32606 | -2.32862 | 1882 ft | 192 kts | 248° |
| 2026-05-04 17:59 | 53.32118 | -2.37186 | 3280 ft | 193 kts | 284° |
| 2026-05-04 18:00 | 53.32504 | -2.39415 | 3780 ft | 206 kts | 285° |
| 2026-05-04 18:00 | 53.32777 | -2.41814 | 4440 ft | 218 kts | 270° |
| 2026-05-04 18:00 | 53.32414 | -2.44378 | 4918 ft | 235 kts | 252° |
| 2026-05-04 18:00 | 53.31904 | -2.46993 | 5559 ft | 237 kts | 254° |
| 2026-05-04 18:01 | 53.31430 | -2.49651 | 6123 ft | 240 kts | 255° |
| 2026-05-04 18:01 | 53.30944 | -2.52344 | 6635 ft | 244 kts | 254° |
| 2026-05-04 18:01 | 53.30448 | -2.55061 | 7187 ft | 246 kts | 254° |
| 2026-05-04 18:02 | 53.29442 | -2.60539 | 8308 ft | 249 kts | 253° |
| 2026-05-04 18:02 | 53.28953 | -2.63321 | 8804 ft | 253 kts | 259° |
| 2026-05-04 18:02 | 53.28923 | -2.63544 | 8834 ft | 254 kts | 259° |
| 2026-05-04 18:03 | 53.28855 | -2.64107 | 8913 ft | 255 kts | 261° |
| 2026-05-04 18:03 | 53.28499 | -2.67026 | 9392 ft | 259 kts | 256° |
| 2026-05-04 18:03 | 53.28036 | -2.69953 | 9891 ft | 262 kts | 259° |
| 2026-05-04 18:03 | 53.27787 | -2.72969 | 10395 ft | 263 kts | 262° |
| 2026-05-04 18:04 | 53.27359 | -2.75933 | 10883 ft | 264 kts | 248° |
| 2026-05-04 18:04 | 53.26535 | -2.78672 | 11392 ft | 263 kts | 244° |
| 2026-05-04 18:04 | 53.25876 | -2.84712 | 11761 ft | 285 kts | 283° |
| 2026-05-04 18:05 | 53.26546 | -2.87889 | 12099 ft | 295 kts | 294° |
| 2026-05-04 18:05 | 53.27674 | -2.90687 | 12871 ft | 280 kts | 311° |
| 2026-05-04 18:05 | 53.29010 | -2.92892 | 13868 ft | 263 kts | 313° |
| 2026-05-04 18:05 | 53.30368 | -2.94979 | 14120 ft | 272 kts | 316° |
| 2026-05-04 18:06 | 53.33221 | -2.99340 | 14722 ft | 277 kts | 308° |
| 2026-05-04 18:06 | 53.34397 | -3.01943 | 14990 ft | 285 kts | 302° |
| 2026-05-04 18:06 | 53.34400 | -3.01949 | 14990 ft | 285 kts | 302° |
| 2026-05-04 18:07 | 53.35431 | -3.04573 | 15261 ft | 292 kts | 303° |
| 2026-05-04 18:07 | 53.36593 | -3.07402 | 15639 ft | 297 kts | 304° |
| 2026-05-04 18:07 | 53.37808 | -3.10218 | 16053 ft | 300 kts | 306° |
| 2026-05-04 18:07 | 53.39054 | -3.13042 | 16490 ft | 302 kts | 305° |
| 2026-05-04 18:08 | 53.40283 | -3.15868 | 17227 ft | 298 kts | 305° |
| 2026-05-04 18:08 | 53.41496 | -3.18715 | 17815 ft | 303 kts | 304° |
| 2026-05-04 18:08 | 53.42715 | -3.21629 | 18185 ft | 308 kts | 304° |
| 2026-05-04 18:08 | 53.43963 | -3.24604 | 18466 ft | 315 kts | 305° |
| 2026-05-04 18:09 | 53.46537 | -3.30669 | 19149 ft | 322 kts | 306° |
| 2026-05-04 18:09 | 53.49147 | -3.36807 | 19945 ft | 325 kts | 306° |
| 2026-05-04 18:10 | 53.50464 | -3.39914 | 20235 ft | 331 kts | 306° |
| 2026-05-04 18:10 | 53.51859 | -3.43202 | 16733 ft | 355 kts | 304° |
| 2026-05-04 18:10 | 53.53088 | -3.46068 | 14743 ft | 343 kts | 306° |
| 2026-05-04 18:10 | 53.54466 | -3.49115 | 15227 ft | 322 kts | 307° |
| 2026-05-04 18:11 | 53.55901 | -3.52171 | 14869 ft | 342 kts | 307° |
| 2026-05-04 18:11 | 53.57400 | -3.55484 | 14631 ft | 367 kts | 306° |
| 2026-05-04 18:11 | 53.58957 | -3.58985 | 14556 ft | 379 kts | 306° |
| 2026-05-04 18:11 | 53.60541 | -3.62586 | 14526 ft | 384 kts | 306° |
| 2026-05-04 18:12 | 53.62109 | -3.66174 | 14507 ft | 375 kts | 306° |
| 2026-05-04 18:12 | 53.63449 | -3.69780 | 14488 ft | 352 kts | 289° |
| 2026-05-04 18:12 | 53.63799 | -3.73705 | 14507 ft | 332 kts | 262° |
| 2026-05-04 18:12 | 53.63072 | -3.77288 | 14314 ft | 321 kts | 236° |
| 2026-05-04 18:13 | 53.61828 | -3.80232 | 14350 ft | 298 kts | 245° |
| 2026-05-04 18:13 | 53.61378 | -3.83603 | 14415 ft | 302 kts | 276° |
| 2026-05-04 18:13 | 53.62476 | -3.90518 | 14515 ft | 310 kts | 279° |
| 2026-05-04 18:14 | 53.62756 | -3.94059 | 14702 ft | 307 kts | 275° |
| 2026-05-04 18:14 | 53.62940 | -3.97716 | 15221 ft | 311 kts | 274° |
| 2026-05-04 18:14 | 53.63085 | -4.01347 | 15794 ft | 310 kts | 273° |
| 2026-05-04 18:15 | 53.63362 | -4.08634 | 16771 ft | 318 kts | 274° |
| 2026-05-04 18:15 | 53.63645 | -4.16145 | 17730 ft | 324 kts | 274° |
| 2026-05-04 18:15 | 53.63788 | -4.19957 | 18209 ft | 328 kts | 274° |
| 2026-05-04 18:16 | 53.63932 | -4.23805 | 18637 ft | 331 kts | 274° |
| 2026-05-04 18:16 | 53.64076 | -4.27694 | 19043 ft | 334 kts | 274° |
| 2026-05-04 18:16 | 53.64219 | -4.31618 | 19453 ft | 337 kts | 274° |
| 2026-05-04 18:17 | 53.64504 | -4.39577 | 20298 ft | 342 kts | 274° |
| 2026-05-04 18:17 | 53.64645 | -4.43598 | 20662 ft | 346 kts | 274° |
| 2026-05-04 18:17 | 53.64927 | -4.51723 | 21551 ft | 349 kts | 274° |
| 2026-05-04 18:18 | 53.65068 | -4.55835 | 21935 ft | 353 kts | 274° |
| 2026-05-04 18:18 | 53.65209 | -4.59977 | 22356 ft | 355 kts | 274° |
| 2026-05-04 18:18 | 53.65349 | -4.64145 | 22779 ft | 357 kts | 274° |
| 2026-05-04 18:18 | 53.65489 | -4.68321 | 23263 ft | 357 kts | 275° |
| 2026-05-04 18:19 | 53.65768 | -4.76747 | 23987 ft | 363 kts | 274° |
| 2026-05-04 18:19 | 53.65905 | -4.81004 | 24337 ft | 365 kts | 274° |
| 2026-05-04 18:19 | 53.66042 | -4.85280 | 24693 ft | 366 kts | 275° |
| 2026-05-04 18:20 | 53.66184 | -4.89578 | 25039 ft | 368 kts | 275° |
| 2026-05-04 18:20 | 53.66328 | -4.93896 | 25382 ft | 370 kts | 275° |
| 2026-05-04 18:20 | 53.66472 | -4.98237 | 25719 ft | 372 kts | 275° |
| 2026-05-04 18:20 | 53.66615 | -5.02600 | 26064 ft | 374 kts | 275° |
| 2026-05-04 18:21 | 53.66757 | -5.06987 | 26403 ft | 376 kts | 275° |
| 2026-05-04 18:21 | 53.66897 | -5.11397 | 26746 ft | 378 kts | 275° |
| 2026-05-04 18:21 | 53.67036 | -5.15824 | 27074 ft | 380 kts | 275° |
| 2026-05-04 18:21 | 53.67169 | -5.20288 | 27411 ft | 382 kts | 275° |
| 2026-05-04 18:22 | 53.67297 | -5.24759 | 27768 ft | 382 kts | 275° |
| 2026-05-04 18:22 | 53.67425 | -5.29238 | 28138 ft | 383 kts | 275° |
| 2026-05-04 18:22 | 53.67500 | -5.31895 | 28330 ft | 384 kts | 275° |
| 2026-05-04 18:22 | 53.67543 | -5.33433 | 28442 ft | 385 kts | 275° |
| 2026-05-04 18:23 | 53.67595 | -5.35272 | 28561 ft | 386 kts | 275° |
| 2026-05-04 18:23 | 53.67785 | -5.41628 | 26415 ft | 446 kts | 275° |
| 2026-05-04 18:23 | 53.67869 | -5.44421 | 26042 ft | 461 kts | 272° |
| 2026-05-04 18:24 | 53.69362 | -5.74063 | 28140 ft | 472 kts | 281° |
| 2026-05-04 18:25 | 53.72881 | -6.17888 | 31716 ft | 467 kts | 278° |
| 2026-05-04 18:25 | 53.75497 | -6.58530 | 32865 ft | 483 kts | 278° |
| 2026-05-04 18:25 | 53.76950 | -6.81383 | 33156 ft | 497 kts | 277° |
| 2026-05-04 18:25 | 53.78405 | -7.05005 | 33066 ft | 512 kts | 277° |
| 2026-05-04 18:26 | 53.79817 | -7.28784 | 34010 ft | 503 kts | 277° |
| 2026-05-04 18:26 | 53.81177 | -7.52436 | 34153 ft | 508 kts | 277° |
| 2026-05-04 18:26 | 53.83786 | -8.00338 | 35057 ft | 498 kts | 276° |
| 2026-05-04 18:27 | 53.85009 | -8.24081 | 34673 ft | 512 kts | 276° |
| 2026-05-04 18:27 | 53.85938 | -8.42870 | 35063 ft | 477 kts | 275° |
| 2026-05-04 18:29 | 53.86914 | -8.63333 | 34352 ft | 452 kts | 276° |
| 2026-05-04 18:29 | 53.88840 | -9.05404 | 34332 ft | 459 kts | 275° |
| 2026-05-04 18:30 | 53.90474 | -9.43585 | 34516 ft | 484 kts | 275° |
| 2026-05-04 18:31 | 53.93787 | -10.53483 | 35847 ft | 495 kts | 270° |
| 2026-05-04 18:32 | 53.89100 | -11.54289 | 35628 ft | 479 kts | 259° |
| 2026-05-04 18:32 | 53.69238 | -12.53580 | 22504 ft | 456 kts | 241° |
| 2026-05-04 18:32 | 53.47237 | -13.09884 | 17468 ft | 494 kts | 233° |
| 2026-05-04 18:32 | 53.26354 | -13.61145 | 11768 ft | 272 kts | 249° |
| 2026-05-04 18:33 | 53.16048 | -14.02019 | 20125 ft | 340 kts | 254° |